Terminal Aerodrome Forecast
Issued by NWS Bismarck, ND

Home | Current Version | Previous Version | Text Only | Print | Product List | Glossary Off
Versions: 1 2 3 4 5 6 7 8 9 10 11 12 13 14 15 16 17 18 19 20 21 22

000
FTUS43 KBIS 041749
TAFISN
TAF
KISN 041749Z 0418/0518 16006KT P6SM SCT080
     FM042100 20008KT P6SM VCTS SCT060CB SCT100
      TEMPO 0422/0501 -SHRA BKN060 OVC100
     FM050100 01011KT P6SM BKN100
     FM051400 35015KT P6SM -SHRA VCTS SCT025 BKN040 OVC070CB=

USA.gov is the U.S. government's official web portal to all federal, state and local government web resources and services.